sensor_id;sensor_type;location;lat;lon;timestamp;pressure;altitude;pressure_sealevel;temperature
69415;BMP280;56608;43.530;-5.652;2022-07-06T00:00:28;102418.44;;;20.57
69415;BMP280;56608;43.530;-5.652;2022-07-06T00:01:30;102414.97;;;20.56
69415;BMP280;56608;43.530;-5.652;2022-07-06T00:02:32;102416.97;;;20.56
69415;BMP280;56608;43.530;-5.652;2022-07-06T00:03:33;102412.72;;;20.55
69415;BMP280;56608;43.530;-5.652;2022-07-06T00:04:35;102412.72;;;20.55
69415;BMP280;56608;43.530;-5.652;2022-07-06T00:05:37;102422.63;;;20.67
69415;BMP280;56608;43.530;-5.652;2022-07-06T00:06:38;102419.09;;;20.52
69415;BMP280;56608;43.530;-5.652;2022-07-06T00:07:39;102410.56;;;20.59
69415;BMP280;56608;43.530;-5.652;2022-07-06T00:08:39;102418.38;;;20.66
69415;BMP280;56608;43.530;-5.652;2022-07-06T00:09:41;102422.16;;;20.69
69415;BMP280;56608;43.530;-5.652;2022-07-06T00:10:42;102415.78;;;20.72
69415;BMP280;56608;43.530;-5.652;2022-07-06T00:11:44;102420.47;;;20.71
69415;BMP280;56608;43.530;-5.652;2022-07-06T00:12:46;102420.84;;;20.64
69415;BMP280;56608;43.530;-5.652;2022-07-06T00:13:48;102431.59;;;20.68
69415;BMP280;56608;43.530;-5.652;2022-07-06T00:14:49;102427.28;;;20.76
69415;BMP280;56608;43.530;-5.652;2022-07-06T00:15:51;102423.59;;;20.64
69415;BMP280;56608;43.530;-5.652;2022-07-06T00:16:51;102418.78;;;20.50
69415;BMP280;56608;43.530;-5.652;2022-07-06T00:17:53;102428.62;;;20.56
69415;BMP280;56608;43.530;-5.652;2022-07-06T00:18:54;102417.06;;;20.61
69415;BMP280;56608;43.530;-5.652;2022-07-06T00:19:54;102420.47;;;20.71
69415;BMP280;56608;43.530;-5.652;2022-07-06T00:20:56;102420.19;;;20.69
69415;BMP280;56608;43.530;-5.652;2022-07-06T00:21:56;102421.47;;;20.59
69415;BMP280;56608;43.530;-5.652;2022-07-06T00:22:58;102422.13;;;20.54
69415;BMP280;56608;43.530;-5.652;2022-07-06T00:24:00;102418.28;;;20.60
69415;BMP280;56608;43.530;-5.652;2022-07-06T00:25:00;102417.81;;;20.62
69415;BMP280;56608;43.530;-5.652;2022-07-06T00:26:02;102423.28;;;20.62
69415;BMP280;56608;43.530;-5.652;2022-07-06T00:27:04;102429.50;;;20.62
69415;BMP280;56608;43.530;-5.652;2022-07-06T00:28:05;102417.41;;;20.54
69415;BMP280;56608;43.530;-5.652;2022-07-06T00:29:07;102420.91;;;20.55
69415;BMP280;56608;43.530;-5.652;2022-07-06T00:30:08;102428.91;;;20.58
69415;BMP280;56608;43.530;-5.652;2022-07-06T00:31:10;102423.00;;;20.60
69415;BMP280;56608;43.530;-5.652;2022-07-06T00:32:12;102425.94;;;20.71
69415;BMP280;56608;43.530;-5.652;2022-07-06T00:33:12;102426.22;;;20.73
69415;BMP280;56608;43.530;-5.652;2022-07-06T00:34:13;102429.13;;;20.70
69415;BMP280;56608;43.530;-5.652;2022-07-06T00:35:14;102433.25;;;20.65
69415;BMP280;56608;43.530;-5.652;2022-07-06T00:36:16;102422.34;;;20.65
69415;BMP280;56608;43.530;-5.652;2022-07-06T00:37:16;102434.19;;;20.62
69415;BMP280;56608;43.530;-5.652;2022-07-06T00:38:18;102424.78;;;20.63
69415;BMP280;56608;43.530;-5.652;2022-07-06T00:39:19;102422.91;;;20.69
69415;BMP280;56608;43.530;-5.652;2022-07-06T00:40:23;102424.88;;;20.69
69415;BMP280;56608;43.530;-5.652;2022-07-06T00:41:24;102417.44;;;20.69
69415;BMP280;56608;43.530;-5.652;2022-07-06T00:42:26;102422.00;;;20.72
69415;BMP280;56608;43.530;-5.652;2022-07-06T00:43:27;102419.53;;;20.74
69415;BMP280;56608;43.530;-5.652;2022-07-06T00:44:29;102413.56;;;20.61
69415;BMP280;56608;43.530;-5.652;2022-07-06T00:45:29;102414.81;;;20.60
69415;BMP280;56608;43.530;-5.652;2022-07-06T00:46:31;102416.03;;;20.59
69415;BMP280;56608;43.530;-5.652;2022-07-06T00:47:33;102420.09;;;20.64
69415;BMP280;56608;43.530;-5.652;2022-07-06T00:48:33;102409.81;;;20.58
69415;BMP280;56608;43.530;-5.652;2022-07-06T00:49:35;102409.34;;;20.60
69415;BMP280;56608;43.530;-5.652;2022-07-06T00:50:55;102415.53;;;20.60
69415;BMP280;56608;43.530;-5.652;2022-07-06T00:51:57;102408.78;;;20.56
69415;BMP280;56608;43.530;-5.652;2022-07-06T00:53:02;102412.06;;;20.60
69415;BMP280;56608;43.530;-5.652;2022-07-06T00:54:04;102412.34;;;20.62
69415;BMP280;56608;43.530;-5.652;2022-07-06T00:55:07;102412.53;;;20.58
69415;BMP280;56608;43.530;-5.652;2022-07-06T00:56:10;102405.12;;;20.50
69415;BMP280;56608;43.530;-5.652;2022-07-06T00:57:12;102405.72;;;20.54
69415;BMP280;56608;43.530;-5.652;2022-07-06T00:58:13;102403.88;;;20.60
69415;BMP280;56608;43.530;-5.652;2022-07-06T00:59:15;102405.94;;;20.65
69415;BMP280;56608;43.530;-5.652;2022-07-06T01:00:20;102412.00;;;20.69
69415;BMP280;56608;43.530;-5.652;2022-07-06T01:01:21;102420.47;;;20.71
69415;BMP280;56608;43.530;-5.652;2022-07-06T01:02:23;102417.25;;;20.58
69415;BMP280;56608;43.530;-5.652;2022-07-06T01:03:24;102423.28;;;20.62
69415;BMP280;56608;43.530;-5.652;2022-07-06T01:04:26;102414.50;;;20.58
69415;BMP280;56608;43.530;-5.652;2022-07-06T01:05:28;102415.63;;;20.51
69415;BMP280;56608;43.530;-5.652;2022-07-06T01:06:29;102413.63;;;20.52
69415;BMP280;56608;43.530;-5.652;2022-07-06T01:07:31;102409.63;;;20.62
69415;BMP280;56608;43.530;-5.652;2022-07-06T01:08:32;102406.44;;;20.64
69415;BMP280;56608;43.530;-5.652;2022-07-06T01:09:34;102410.50;;;20.68
69415;BMP280;56608;43.530;-5.652;2022-07-06T01:10:34;102408.09;;;20.61
69415;BMP280;56608;43.530;-5.652;2022-07-06T01:11:35;102414.81;;;20.60
69415;BMP280;56608;43.530;-5.652;2022-07-06T01:12:41;102411.12;;;20.63
69415;BMP280;56608;43.530;-5.652;2022-07-06T01:13:43;102406.31;;;20.58
69415;BMP280;56608;43.530;-5.652;2022-07-06T01:14:45;102406.94;;;20.53
69415;BMP280;56608;43.530;-5.652;2022-07-06T01:15:46;102408.16;;;20.52
69415;BMP280;56608;43.530;-5.652;2022-07-06T01:16:48;102408.28;;;20.57
69415;BMP280;56608;43.530;-5.652;2022-07-06T01:17:50;102417.53;;;20.60
69415;BMP280;56608;43.530;-5.652;2022-07-06T01:18:52;102404.91;;;20.62
69415;BMP280;56608;43.530;-5.652;2022-07-06T01:19:53;102408.28;;;20.57
69415;BMP280;56608;43.530;-5.652;2022-07-06T01:21:12;102409.34;;;20.60
69415;BMP280;56608;43.530;-5.652;2022-07-06T01:22:15;102406.94;;;20.53
69415;BMP280;56608;43.530;-5.652;2022-07-06T01:23:16;102404.97;;;20.53
69415;BMP280;56608;43.530;-5.652;2022-07-06T01:24:18;102404.22;;;20.53
69415;BMP280;56608;43.530;-5.652;2022-07-06T01:25:20;102398.56;;;20.56
69415;BMP280;56608;43.530;-5.652;2022-07-06T01:26:22;102404.47;;;20.64
69415;BMP280;56608;43.530;-5.652;2022-07-06T01:27:23;102404.16;;;20.62
69415;BMP280;56608;43.530;-5.652;2022-07-06T01:28:25;102403.59;;;20.49
69415;BMP280;56608;43.530;-5.652;2022-07-06T01:29:26;102401.78;;;20.55
69415;BMP280;56608;43.530;-5.652;2022-07-06T01:30:27;102402.38;;;20.59
69415;BMP280;56608;43.530;-5.652;2022-07-06T01:31:29;102402.19;;;20.62
69415;BMP280;56608;43.530;-5.652;2022-07-06T01:32:29;102404.47;;;20.64
69415;BMP280;56608;43.530;-5.652;2022-07-06T01:33:32;102396.84;;;20.68
69415;BMP280;56608;43.530;-5.652;2022-07-06T01:34:34;102397.75;;;20.65
69415;BMP280;56608;43.530;-5.652;2022-07-06T01:35:38;102398.81;;;20.68
69415;BMP280;56608;43.530;-5.652;2022-07-06T01:36:39;102401.38;;;20.71
69415;BMP280;56608;43.530;-5.652;2022-07-06T01:37:41;102402.41;;;20.50
69415;BMP280;56608;43.530;-5.652;2022-07-06T01:38:51;102403.94;;;20.51
69415;BMP280;56608;43.530;-5.652;2022-07-06T01:39:52;102400.03;;;20.43
69415;BMP280;56608;43.530;-5.652;2022-07-06T01:40:54;102395.03;;;20.41
69415;BMP280;56608;43.530;-5.652;2022-07-06T01:41:55;102394.97;;;20.50
69415;BMP280;56608;43.530;-5.652;2022-07-06T01:42:57;102394.84;;;20.45
69415;BMP280;56608;43.530;-5.652;2022-07-06T01:43:58;102396.72;;;20.39
69415;BMP280;56608;43.530;-5.652;2022-07-06T01:45:00;102397.94;;;20.38
69415;BMP280;56608;43.530;-5.652;2022-07-06T01:46:02;102396.06;;;20.44
69415;BMP280;56608;43.530;-5.652;2022-07-06T01:47:03;102398.47;;;20.51
69415;BMP280;56608;43.530;-5.652;2022-07-06T01:48:06;102396.63;;;20.48
69415;BMP280;56608;43.530;-5.652;2022-07-06T01:49:06;102396.72;;;20.39
69415;BMP280;56608;43.530;-5.652;2022-07-06T01:50:09;102397.03;;;20.32
69415;BMP280;56608;43.530;-5.652;2022-07-06T01:51:11;102395.97;;;20.38
69415;BMP280;56608;43.530;-5.652;2022-07-06T01:52:13;102397.00;;;20.41
69415;BMP280;56608;43.530;-5.652;2022-07-06T01:53:13;102398.19;;;20.40
69415;BMP280;56608;43.530;-5.652;2022-07-06T01:54:15;102392.28;;;20.41
69415;BMP280;56608;43.530;-5.652;2022-07-06T01:55:17;102389.69;;;20.47
69415;BMP280;56608;43.530;-5.652;2022-07-06T01:56:19;102394.84;;;20.45
69415;BMP280;56608;43.530;-5.652;2022-07-06T01:57:19;102392.78;;;20.31
69415;BMP280;56608;43.530;-5.652;2022-07-06T01:58:22;102391.31;;;20.30
69415;BMP280;56608;43.530;-5.652;2022-07-06T01:59:22;102387.94;;;20.35
69415;BMP280;56608;43.530;-5.652;2022-07-06T02:00:24;102382.81;;;20.28
69415;BMP280;56608;43.530;-5.652;2022-07-06T02:01:26;102387.94;;;20.35
69415;BMP280;56608;43.530;-5.652;2022-07-06T02:02:27;102379.28;;;20.36
69415;BMP280;56608;43.530;-5.652;2022-07-06T02:03:28;102377.59;;;20.39
69415;BMP280;56608;43.530;-5.652;2022-07-06T02:04:30;102387.09;;;20.43
69415;BMP280;56608;43.530;-5.652;2022-07-06T02:05:31;102381.78;;;20.49
69415;BMP280;56608;43.530;-5.652;2022-07-06T02:06:32;102376.31;;;20.49
69415;BMP280;56608;43.530;-5.652;2022-07-06T02:07:34;102382.84;;;20.51
69415;BMP280;56608;43.530;-5.652;2022-07-06T02:08:36;102385.66;;;20.33
69415;BMP280;56608;43.530;-5.652;2022-07-06T02:09:38;102378.56;;;20.27
69415;BMP280;56608;43.530;-5.652;2022-07-06T02:10:39;102377.09;;;20.26
69415;BMP280;56608;43.530;-5.652;2022-07-06T02:11:41;102382.97;;;20.24
69415;BMP280;56608;43.530;-5.652;2022-07-06T02:12:43;102373.44;;;20.19
69415;BMP280;56608;43.530;-5.652;2022-07-06T02:13:44;102380.56;;;20.26
69415;BMP280;56608;43.530;-5.652;2022-07-06T02:14:46;102377.09;;;20.26
69415;BMP280;56608;43.530;-5.652;2022-07-06T02:15:47;102377.50;;;20.24
69415;BMP280;56608;43.530;-5.652;2022-07-06T02:16:49;102371.12;;;20.27
69415;BMP280;56608;43.530;-5.652;2022-07-06T02:17:51;102382.00;;;20.36
69415;BMP280;56608;43.530;-5.652;2022-07-06T02:18:52;102367.03;;;20.32
69415;BMP280;56608;43.530;-5.652;2022-07-06T02:19:53;102370.38;;;20.27
69415;BMP280;56608;43.530;-5.652;2022-07-06T02:20:54;102382.19;;;20.24
69415;BMP280;56608;43.530;-5.652;2022-07-06T02:21:56;102368.91;;;20.26
69415;BMP280;56608;43.530;-5.652;2022-07-06T02:22:57;102375.09;;;20.26
69415;BMP280;56608;43.530;-5.652;2022-07-06T02:23:59;102372.03;;;20.24
69415;BMP280;56608;43.530;-5.652;2022-07-06T02:25:02;102375.69;;;20.30
69415;BMP280;56608;43.530;-5.652;2022-07-06T02:26:02;102377.94;;;20.32
69415;BMP280;56608;43.530;-5.652;2022-07-06T02:27:05;102378.56;;;20.27
69415;BMP280;56608;43.530;-5.652;2022-07-06T02:28:05;102367.34;;;20.25
69415;BMP280;56608;43.530;-5.652;2022-07-06T02:29:07;102369.47;;;20.30
69415;BMP280;56608;43.530;-5.652;2022-07-06T02:30:09;102373.34;;;20.38
69415;BMP280;56608;43.530;-5.652;2022-07-06T02:31:10;102372.16;;;20.39
69415;BMP280;56608;43.530;-5.652;2022-07-06T02:32:14;102373.06;;;20.36
69415;BMP280;56608;43.530;-5.652;2022-07-06T02:33:15;102374.56;;;20.37
69415;BMP280;56608;43.530;-5.652;2022-07-06T02:34:17;102370.22;;;20.30
69415;BMP280;56608;43.530;-5.652;2022-07-06T02:35:18;102372.22;;;20.21
69415;BMP280;56608;43.530;-5.652;2022-07-06T02:36:20;102384.94;;;20.24
69415;BMP280;56608;43.530;-5.652;2022-07-06T02:37:21;102378.87;;;20.29
69415;BMP280;56608;43.530;-5.652;2022-07-06T02:38:23;102380.84;;;20.28
69415;BMP280;56608;43.530;-5.652;2022-07-06T02:39:24;102383.41;;;20.32
69415;BMP280;56608;43.530;-5.652;2022-07-06T02:40:26;102376.09;;;20.38
69415;BMP280;56608;43.530;-5.652;2022-07-06T02:41:26;102383.31;;;20.26
69415;BMP280;56608;43.530;-5.652;2022-07-06T02:42:27;102385.41;;;20.22
69415;BMP280;56608;43.530;-5.652;2022-07-06T02:43:27;102369.94;;;20.19
69415;BMP280;56608;43.530;-5.652;2022-07-06T02:44:28;102377.69;;;20.21
69415;BMP280;56608;43.530;-5.652;2022-07-06T02:45:28;102376.41;;;20.31
69415;BMP280;56608;43.530;-5.652;2022-07-06T02:46:30;102383.41;;;20.32
69415;BMP280;56608;43.530;-5.652;2022-07-06T02:47:31;102381.16;;;20.30
69415;BMP280;56608;43.530;-5.652;2022-07-06T02:48:33;102372.97;;;20.21
69415;BMP280;56608;43.530;-5.652;2022-07-06T02:49:34;102383.72;;;20.25
69415;BMP280;56608;43.530;-5.652;2022-07-06T02:50:36;102366.75;;;20.30
69415;BMP280;56608;43.530;-5.652;2022-07-06T02:51:36;102374.00;;;20.33
69415;BMP280;56608;43.530;-5.652;2022-07-06T02:52:38;102372.78;;;20.34
69415;BMP280;56608;43.530;-5.652;2022-07-06T02:53:40;102378.69;;;20.32
69415;BMP280;56608;43.530;-5.652;2022-07-06T02:54:41;102366.75;;;20.30
69415;BMP280;56608;43.530;-5.652;2022-07-06T02:55:43;102364.31;;;20.23
69415;BMP280;56608;43.530;-5.652;2022-07-06T02:56:44;102369.31;;;20.24
69415;BMP280;56608;43.530;-5.652;2022-07-06T02:57:48;102363.09;;;20.24
69415;BMP280;56608;43.530;-5.652;2022-07-06T02:58:50;102367.53;;;20.21
69415;BMP280;56608;43.530;-5.652;2022-07-06T02:59:51;102362.00;;;20.06
69415;BMP280;56608;43.530;-5.652;2022-07-06T03:00:52;102363.16;;;20.14
69415;BMP280;56608;43.530;-5.652;2022-07-06T03:01:54;102367.03;;;20.23
69415;BMP280;56608;43.530;-5.652;2022-07-06T03:02:55;102357.38;;;20.22
69415;BMP280;56608;43.530;-5.652;2022-07-06T03:03:57;102357.81;;;20.20
69415;BMP280;56608;43.530;-5.652;2022-07-06T03:04:58;102365.81;;;20.24
69415;BMP280;56608;43.530;-5.652;2022-07-06T03:06:00;102358.84;;;20.23
69415;BMP280;56608;43.530;-5.652;2022-07-06T03:07:01;102370.06;;;20.25
69415;BMP280;56608;43.530;-5.652;2022-07-06T03:08:02;102368.28;;;20.22
69415;BMP280;56608;43.530;-5.652;2022-07-06T03:09:04;102366.91;;;20.26
69415;BMP280;56608;43.530;-5.652;2022-07-06T03:10:05;102354.75;;;20.27
69415;BMP280;56608;43.530;-5.652;2022-07-06T03:11:06;102366.75;;;20.30
69415;BMP280;56608;43.530;-5.652;2022-07-06T03:12:08;102370.22;;;20.30
69415;BMP280;56608;43.530;-5.652;2022-07-06T03:13:09;102371.56;;;20.35
69415;BMP280;56608;43.530;-5.652;2022-07-06T03:14:09;102369.41;;;20.39
69415;BMP280;56608;43.530;-5.652;2022-07-06T03:15:11;102366.69;;;20.39
69415;BMP280;56608;43.530;-5.652;2022-07-06T03:16:13;102369.94;;;20.28
69415;BMP280;56608;43.530;-5.652;2022-07-06T03:17:15;102370.53;;;20.23
69415;BMP280;56608;43.530;-5.652;2022-07-06T03:18:16;102366.91;;;20.26
69415;BMP280;56608;43.530;-5.652;2022-07-06T03:19:17;102361.87;;;20.25
69415;BMP280;56608;43.530;-5.652;2022-07-06T03:20:18;102362.66;;;20.25
69415;BMP280;56608;43.530;-5.652;2022-07-06T03:21:20;102364.00;;;20.30
69415;BMP280;56608;43.530;-5.652;2022-07-06T03:22:21;102364.59;;;20.34
69415;BMP280;56608;43.530;-5.652;2022-07-06T03:23:23;102361.28;;;20.30
69415;BMP280;56608;43.530;-5.652;2022-07-06T03:24:24;102364.78;;;20.30
69415;BMP280;56608;43.530;-5.652;2022-07-06T03:25:26;102352.59;;;20.31
69415;BMP280;56608;43.530;-5.652;2022-07-06T03:26:27;102357.50;;;20.27
69415;BMP280;56608;43.530;-5.652;2022-07-06T03:27:28;102361.87;;;20.25
69415;BMP280;56608;43.530;-5.652;2022-07-06T03:28:30;102355.50;;;20.28
69415;BMP280;56608;43.530;-5.652;2022-07-06T03:29:31;102355.66;;;20.24
69415;BMP280;56608;43.530;-5.652;2022-07-06T03:30:32;102361.87;;;20.25
69415;BMP280;56608;43.530;-5.652;2022-07-06T03:31:34;102356.59;;;20.30
69415;BMP280;56608;43.530;-5.652;2022-07-06T03:32:36;102365.81;;;20.24
69415;BMP280;56608;43.530;-5.652;2022-07-06T03:33:37;102365.81;;;20.24
69415;BMP280;56608;43.530;-5.652;2022-07-06T03:34:39;102364.00;;;20.30
69415;BMP280;56608;43.530;-5.652;2022-07-06T03:35:40;102365.50;;;20.31
69415;BMP280;56608;43.530;-5.652;2022-07-06T03:36:42;102363.72;;;20.28
69415;BMP280;56608;43.530;-5.652;2022-07-06T03:37:43;102369.16;;;20.28
69415;BMP280;56608;43.530;-5.652;2022-07-06T03:38:45;102363.06;;;20.33
69415;BMP280;56608;43.530;-5.652;2022-07-06T03:39:46;102364.00;;;20.30
69415;BMP280;56608;43.530;-5.652;2022-07-06T03:40:48;102364.00;;;20.30
69415;BMP280;56608;43.530;-5.652;2022-07-06T03:41:49;102362.13;;;20.36
69415;BMP280;56608;43.530;-5.652;2022-07-06T03:42:51;102369.56;;;20.35
69415;BMP280;56608;43.530;-5.652;2022-07-06T03:43:52;102364.69;;;20.39
69415;BMP280;56608;43.530;-5.652;2022-07-06T03:44:53;102363.66;;;20.37
69415;BMP280;56608;43.530;-5.652;2022-07-06T03:45:55;102365.50;;;20.31
69415;BMP280;56608;43.530;-5.652;2022-07-06T03:46:56;102361.56;;;20.32
69415;BMP280;56608;43.530;-5.652;2022-07-06T03:47:58;102367.72;;;20.41
69415;BMP280;56608;43.530;-5.652;2022-07-06T03:48:59;102372.03;;;20.33
69415;BMP280;56608;43.530;-5.652;2022-07-06T03:50:00;102369.13;;;20.37
69415;BMP280;56608;43.530;-5.652;2022-07-06T03:51:02;102363.94;;;20.39
69415;BMP280;56608;43.530;-5.652;2022-07-06T03:52:03;102366.09;;;20.35
69415;BMP280;56608;43.530;-5.652;2022-07-06T03:53:05;102364.59;;;20.34
69415;BMP280;56608;43.530;-5.652;2022-07-06T03:54:06;102370.06;;;20.34
69415;BMP280;56608;43.530;-5.652;2022-07-06T03:55:09;102366.09;;;20.35
69415;BMP280;56608;43.530;-5.652;2022-07-06T03:56:14;102365.34;;;20.34
69415;BMP280;56608;43.530;-5.652;2022-07-06T03:57:33;102372.47;;;20.32
69415;BMP280;56608;43.530;-5.652;2022-07-06T03:58:34;102363.25;;;20.29
69415;BMP280;56608;43.530;-5.652;2022-07-06T03:59:35;102366.09;;;20.35
69415;BMP280;56608;43.530;-5.652;2022-07-06T04:00:37;102376.00;;;20.23
69415;BMP280;56608;43.530;-5.652;2022-07-06T04:01:38;102369.16;;;20.28
69415;BMP280;56608;43.530;-5.652;2022-07-06T04:02:40;102374.94;;;20.30
69415;BMP280;56608;43.530;-5.652;2022-07-06T04:03:42;102376.75;;;20.24
69415;BMP280;56608;43.530;-5.652;2022-07-06T04:04:43;102366.16;;;20.26
69415;BMP280;56608;43.530;-5.652;2022-07-06T04:05:44;102367.78;;;20.32
69415;BMP280;56608;43.530;-5.652;2022-07-06T04:06:46;102365.03;;;20.32
69415;BMP280;56608;43.530;-5.652;2022-07-06T04:07:48;102363.53;;;20.31
69415;BMP280;56608;43.530;-5.652;2022-07-06T04:08:49;102367.59;;;20.36
69415;BMP280;56608;43.530;-5.652;2022-07-06T04:09:51;102367.91;;;20.38
69415;BMP280;56608;43.530;-5.652;2022-07-06T04:10:52;102366.69;;;20.39
69415;BMP280;56608;43.530;-5.652;2022-07-06T04:11:54;102361.50;;;20.41
69415;BMP280;56608;43.530;-5.652;2022-07-06T04:12:55;102358.00;;;20.40
69415;BMP280;56608;43.530;-5.652;2022-07-06T04:13:57;102361.50;;;20.41
69415;BMP280;56608;43.530;-5.652;2022-07-06T04:14:58;102360.47;;;20.38
69415;BMP280;56608;43.530;-5.652;2022-07-06T04:16:00;102359.97;;;20.40
69415;BMP280;56608;43.530;-5.652;2022-07-06T04:17:01;102369.56;;;20.35
69415;BMP280;56608;43.530;-5.652;2022-07-06T04:18:25;102360.66;;;20.35
69415;BMP280;56608;43.530;-5.652;2022-07-06T04:19:26;102363.25;;;20.29
69415;BMP280;56608;43.530;-5.652;2022-07-06T04:20:27;102358.06;;;20.31
69415;BMP280;56608;43.530;-5.652;2022-07-06T04:21:28;102362.78;;;20.31
69415;BMP280;56608;43.530;-5.652;2022-07-06T04:22:30;102362.13;;;20.36
69415;BMP280;56608;43.530;-5.652;2022-07-06T04:23:31;102357.25;;;20.40
69415;BMP280;56608;43.530;-5.652;2022-07-06T04:24:33;102363.94;;;20.39
69415;BMP280;56608;43.530;-5.652;2022-07-06T04:25:34;102358.38;;;20.33
69415;BMP280;56608;43.530;-5.652;2022-07-06T04:26:36;102361.87;;;20.34
69415;BMP280;56608;43.530;-5.652;2022-07-06T04:27:36;102359.13;;;20.34
69415;BMP280;56608;43.530;-5.652;2022-07-06T04:28:38;102364.00;;;20.30
69415;BMP280;56608;43.530;-5.652;2022-07-06T04:29:40;102366.47;;;20.18
69415;BMP280;56608;43.530;-5.652;2022-07-06T04:30:42;102359.03;;;20.19
69415;BMP280;56608;43.530;-5.652;2022-07-06T04:31:42;102363.28;;;20.20
69415;BMP280;56608;43.530;-5.652;2022-07-06T04:32:44;102359.47;;;20.27
69415;BMP280;56608;43.530;-5.652;2022-07-06T04:33:45;102363.38;;;20.35
69415;BMP280;56608;43.530;-5.652;2022-07-06T04:34:47;102356.09;;;20.32
69415;BMP280;56608;43.530;-5.652;2022-07-06T04:35:47;102350.06;;;20.28
69415;BMP280;56608;43.530;-5.652;2022-07-06T04:36:49;102354.47;;;20.25
69415;BMP280;56608;43.530;-5.652;2022-07-06T04:37:50;102351.56;;;20.29
69415;BMP280;56608;43.530;-5.652;2022-07-06T04:38:51;102352.03;;;20.27
69415;BMP280;56608;43.530;-5.652;2022-07-06T04:39:53;102359.78;;;20.19
69415;BMP280;56608;43.530;-5.652;2022-07-06T04:40:54;102359.63;;;20.23
69415;BMP280;56608;43.530;-5.652;2022-07-06T04:41:56;102350.97;;;20.25
69415;BMP280;56608;43.530;-5.652;2022-07-06T04:42:57;102352.50;;;20.26
69415;BMP280;56608;43.530;-5.652;2022-07-06T04:43:58;102349.78;;;20.26
69415;BMP280;56608;43.530;-5.652;2022-07-06T04:45:00;102350.97;;;20.25
69415;BMP280;56608;43.530;-5.652;2022-07-06T04:46:01;102364.63;;;20.25
69415;BMP280;56608;43.530;-5.652;2022-07-06T04:47:03;102359.03;;;20.19
69415;BMP280;56608;43.530;-5.652;2022-07-06T04:48:04;102357.81;;;20.20
69415;BMP280;56608;43.530;-5.652;2022-07-06T04:49:07;102358.84;;;20.23
69415;BMP280;56608;43.530;-5.652;2022-07-06T04:50:08;102363.44;;;20.26
69415;BMP280;56608;43.530;-5.652;2022-07-06T04:51:10;102361.87;;;20.25
69415;BMP280;56608;43.530;-5.652;2022-07-06T04:52:11;102369.16;;;20.28
69415;BMP280;56608;43.530;-5.652;2022-07-06T04:53:13;102364.00;;;20.30
69415;BMP280;56608;43.530;-5.652;2022-07-06T04:54:14;102361.87;;;20.34
69415;BMP280;56608;43.530;-5.652;2022-07-06T04:55:15;102364.78;;;20.30
69415;BMP280;56608;43.530;-5.652;2022-07-06T04:56:17;102357.16;;;20.34
69415;BMP280;56608;43.530;-5.652;2022-07-06T04:57:18;102362.91;;;20.36
69415;BMP280;56608;43.530;-5.652;2022-07-06T04:58:19;102359.41;;;20.36
69415;BMP280;56608;43.530;-5.652;2022-07-06T04:59:20;102358.84;;;20.23
69415;BMP280;56608;43.530;-5.652;2022-07-06T05:00:22;102360.97;;;20.28
69415;BMP280;56608;43.530;-5.652;2022-07-06T05:01:23;102354.88;;;20.33
69415;BMP280;56608;43.530;-5.652;2022-07-06T05:02:24;102352.16;;;20.33
69415;BMP280;56608;43.530;-5.652;2022-07-06T05:03:25;102351.84;;;20.31
69415;BMP280;56608;43.530;-5.652;2022-07-06T05:04:26;102355.91;;;20.35
69415;BMP280;56608;43.530;-5.652;2022-07-06T05:05:27;102358.19;;;20.37
69415;BMP280;56608;43.530;-5.652;2022-07-06T05:06:29;102351.53;;;20.38
69415;BMP280;56608;43.530;-5.652;2022-07-06T05:07:30;102354.88;;;20.33
69415;BMP280;56608;43.530;-5.652;2022-07-06T05:08:34;102357.03;;;20.29
69415;BMP280;56608;43.530;-5.652;2022-07-06T05:09:36;102353.84;;;20.30
69415;BMP280;56608;43.530;-5.652;2022-07-06T05:10:37;102358.38;;;20.33
69415;BMP280;56608;43.530;-5.652;2022-07-06T05:11:39;102357.03;;;20.29
69415;BMP280;56608;43.530;-5.652;2022-07-06T05:12:40;102357.31;;;20.31
69415;BMP280;56608;43.530;-5.652;2022-07-06T05:13:42;102356.09;;;20.32
69415;BMP280;56608;43.530;-5.652;2022-07-06T05:14:42;102360.78;;;20.31
69415;BMP280;56608;43.530;-5.652;2022-07-06T05:15:43;102361.09;;;20.33
69415;BMP280;56608;43.530;-5.652;2022-07-06T05:16:43;102360.78;;;20.31
69415;BMP280;56608;43.530;-5.652;2022-07-06T05:17:45;102356.09;;;20.32
69415;BMP280;56608;43.530;-5.652;2022-07-06T05:18:47;102357.91;;;20.35
69415;BMP280;56608;43.530;-5.652;2022-07-06T05:19:49;102362.91;;;20.36
69415;BMP280;56608;43.530;-5.652;2022-07-06T05:20:50;102363.84;;;20.33
69415;BMP280;56608;43.530;-5.652;2022-07-06T05:21:52;102361.56;;;20.32
69415;BMP280;56608;43.530;-5.652;2022-07-06T05:22:53;102362.19;;;20.27
69415;BMP280;56608;43.530;-5.652;2022-07-06T05:23:54;102363.72;;;20.28
69415;BMP280;56608;43.530;-5.652;2022-07-06T05:24:56;102360.97;;;20.28
69415;BMP280;56608;43.530;-5.652;2022-07-06T05:26:08;102363.25;;;20.29
69415;BMP280;56608;43.530;-5.652;2022-07-06T05:27:09;102364.28;;;20.32
69415;BMP280;56608;43.530;-5.652;2022-07-06T05:28:10;102362.91;;;20.36
69415;BMP280;56608;43.530;-5.652;2022-07-06T05:29:12;102365.16;;;20.38
69415;BMP280;56608;43.530;-5.652;2022-07-06T05:30:13;102373.81;;;20.36
69415;BMP280;56608;43.530;-5.652;2022-07-06T05:31:16;102362.91;;;20.36
69415;BMP280;56608;43.530;-5.652;2022-07-06T05:32:17;102364.09;;;20.35
69415;BMP280;56608;43.530;-5.652;2022-07-06T05:33:24;102368.19;;;20.40
69415;BMP280;56608;43.530;-5.652;2022-07-06T05:34:34;102366.84;;;20.35
69415;BMP280;56608;43.530;-5.652;2022-07-06T05:35:36;102371.22;;;20.42
69415;BMP280;56608;43.530;-5.652;2022-07-06T05:36:42;102371.84;;;20.37
69415;BMP280;56608;43.530;-5.652;2022-07-06T05:37:45;102363.66;;;20.37
69415;BMP280;56608;43.530;-5.652;2022-07-06T05:38:47;102363.78;;;20.42
69415;BMP280;56608;43.530;-5.652;2022-07-06T05:39:48;102367.53;;;20.45
69415;BMP280;56608;43.530;-5.652;2022-07-06T05:40:54;102368.00;;;20.43
69415;BMP280;56608;43.530;-5.652;2022-07-06T05:41:55;102363.41;;;20.49
69415;BMP280;56608;43.530;-5.652;2022-07-06T05:42:57;102368.28;;;20.45
69415;BMP280;56608;43.530;-5.652;2022-07-06T05:43:58;102370.25;;;20.45
69415;BMP280;56608;43.530;-5.652;2022-07-06T05:45:00;102375.53;;;20.48
69415;BMP280;56608;43.530;-5.652;2022-07-06T05:46:01;102365.37;;;20.49